createdAt,value
2024-01-15T00:00:12.478Z,98672.41
2024-01-15T00:02:40.400Z,98662.66
2024-01-15T00:05:08.998Z,98662.13
2024-01-15T00:07:37.329Z,98647.00
2024-01-15T00:10:05.896Z,98652.16
2024-01-15T00:12:33.669Z,98649.16
2024-01-15T00:15:01.775Z,98636.72
2024-01-15T00:17:30.932Z,98629.97
2024-01-15T00:19:59.041Z,98624.31
2024-01-15T00:22:27.571Z,98619.16
2024-01-15T00:24:55.713Z,98624.31
2024-01-15T00:27:24.805Z,98604.81
2024-01-15T00:29:53.278Z,98594.84
2024-01-15T00:32:21.159Z,98597.81
2024-01-15T00:34:50.743Z,98591.88
2024-01-15T00:37:18.640Z,98586.47
2024-01-15T00:39:47.002Z,98577.56
2024-01-15T00:42:14.934Z,98575.94
2024-01-15T00:44:44.092Z,98589.97
2024-01-15T00:47:11.779Z,98569.47
2024-01-15T00:49:39.944Z,98573.25
2024-01-15T00:52:09.677Z,98566.47
2024-01-15T00:54:37.584Z,98569.47
2024-01-15T00:57:06.324Z,98579.44
2024-01-15T00:59:34.124Z,98555.94
2024-01-15T01:02:01.862Z,98566.22
2024-01-15T01:04:29.918Z,98566.47
2024-01-15T01:06:58.052Z,98568.38
2024-01-15T01:09:30.292Z,98565.41
2024-01-15T01:11:58.414Z,98555.16
2024-01-15T01:14:26.157Z,98545.13
2024-01-15T01:16:54.176Z,98533.00
2024-01-15T01:19:22.166Z,98529.47
2024-01-15T01:21:52.323Z,98527.88
2024-01-15T01:24:20.125Z,98524.88
2024-01-15T01:26:50.381Z,98515.19
2024-01-15T01:29:18.151Z,98518.41
2024-01-15T01:31:46.637Z,98511.94
2024-01-15T01:34:17.266Z,98518.69
2024-01-15T01:36:45.937Z,98501.41
2024-01-15T01:39:13.744Z,98518.41
2024-01-15T01:41:42.013Z,98513.81
2024-01-15T01:44:11.113Z,98504.91
2024-01-15T01:46:41.944Z,98503.31
2024-01-15T01:49:11.233Z,98502.50
2024-01-15T01:51:41.112Z,98498.19
2024-01-15T01:54:12.800Z,98498.16
2024-01-15T01:56:41.016Z,98486.56
2024-01-15T01:59:12.317Z,98487.63
2024-01-15T02:01:41.218Z,98482.00
2024-01-15T02:04:09.283Z,98480.91
2024-01-15T02:06:37.300Z,98487.94
2024-01-15T02:09:06.631Z,98484.41
2024-01-15T02:11:34.738Z,98472.53
2024-01-15T02:14:03.482Z,98480.06
2024-01-15T02:16:32.958Z,98479.81
2024-01-15T02:19:01.054Z,98476.28
2024-01-15T02:21:29.938Z,98482.25
2024-01-15T02:23:59.706Z,98487.94
2024-01-15T02:26:28.426Z,98488.72
2024-01-15T02:28:56.614Z,98497.38
2024-01-15T02:31:24.608Z,98490.88
2024-01-15T02:33:53.077Z,98496.00
2024-01-15T02:36:20.920Z,98520.59
2024-01-15T02:38:48.937Z,98523.81
2024-01-15T02:41:18.070Z,98517.91
2024-01-15T02:43:46.028Z,98506.00
2024-01-15T02:46:13.724Z,98513.00
2024-01-15T02:48:41.509Z,98519.50
2024-01-15T02:51:09.852Z,98508.97
2024-01-15T02:53:38.292Z,98505.75
2024-01-15T02:56:07.033Z,98517.34
2024-01-15T02:58:36.106Z,98513.00
2024-01-15T03:01:04.460Z,98518.16
2024-01-15T03:03:34.191Z,98523.00
2024-01-15T03:06:03.803Z,98525.72
2024-01-15T03:08:31.686Z,98526.25
2024-01-15T03:11:00.416Z,98523.56
2024-01-15T03:13:28.268Z,98518.41
2024-01-15T03:15:57.794Z,98517.91
2024-01-15T03:18:25.738Z,98514.66
2024-01-15T03:20:54.019Z,98515.19
2024-01-15T03:23:21.701Z,98505.72
2024-01-15T03:25:50.444Z,98512.47
2024-01-15T03:28:18.317Z,98514.09
2024-01-15T03:30:46.773Z,98506.00
2024-01-15T03:33:16.115Z,98527.06
2024-01-15T03:35:42.880Z,98522.75
2024-01-15T03:38:10.970Z,98514.91
2024-01-15T03:40:38.927Z,98499.00
2024-01-15T03:43:07.077Z,98502.22
2024-01-15T03:45:34.853Z,98505.72
2024-01-15T03:48:03.017Z,98506.00
2024-01-15T03:50:32.075Z,98509.25
2024-01-15T03:53:00.141Z,98500.88
2024-01-15T03:55:27.876Z,98501.97
2024-01-15T03:57:56.357Z,98485.22
2024-01-15T04:00:24.756Z,98496.00
2024-01-15T04:02:52.886Z,98481.69
2024-01-15T04:05:20.729Z,98477.38
2024-01-15T04:07:50.129Z,98473.31
2024-01-15T04:10:17.939Z,98479.00
2024-01-15T04:12:47.588Z,98468.47
2024-01-15T04:15:15.637Z,98474.41
2024-01-15T04:17:43.765Z,98472.22
2024-01-15T04:20:12.614Z,98465.50
2024-01-15T04:22:40.390Z,98462.00
2024-01-15T04:25:10.240Z,98464.69
2024-01-15T04:27:37.999Z,98470.09
2024-01-15T04:30:07.471Z,98476.31
2024-01-15T04:32:35.306Z,98461.16
2024-01-15T04:35:03.321Z,98470.34
2024-01-15T04:37:31.087Z,98476.56
2024-01-15T04:39:59.131Z,98466.00
2024-01-15T04:42:28.294Z,98471.16
2024-01-15T04:44:56.260Z,98468.44
2024-01-15T04:47:23.966Z,98462.78
2024-01-15T04:49:52.587Z,98467.63
2024-01-15T04:52:20.350Z,98460.34
2024-01-15T04:54:48.327Z,98466.28
2024-01-15T04:57:16.059Z,98459.28
2024-01-15T04:59:45.487Z,98447.63
2024-01-15T05:02:13.247Z,98453.88
2024-01-15T05:04:41.703Z,98450.06
2024-01-15T05:07:09.724Z,98460.31
2024-01-15T05:09:37.886Z,98472.19
2024-01-15T05:12:06.492Z,98461.41
2024-01-15T05:14:34.637Z,98466.53
2024-01-15T05:17:03.780Z,98459.22
2024-01-15T05:19:31.870Z,98453.56
2024-01-15T05:21:59.713Z,98454.09
2024-01-15T05:24:28.271Z,98464.38
2024-01-15T05:26:56.046Z,98445.19
2024-01-15T05:29:24.431Z,98448.97
2024-01-15T05:31:52.230Z,98447.63
2024-01-15T05:34:21.840Z,98433.06
2024-01-15T05:36:49.765Z,98440.34
2024-01-15T05:39:18.373Z,98436.84
2024-01-15T05:41:46.838Z,98420.09
2024-01-15T05:44:14.839Z,98416.31
2024-01-15T05:46:42.519Z,98427.38
2024-01-15T05:49:10.445Z,98428.19
2024-01-15T05:51:40.050Z,98442.78
2024-01-15T05:54:07.822Z,98434.91
2024-01-15T05:56:35.862Z,98443.03
2024-01-15T05:59:03.553Z,98438.72
2024-01-15T06:01:31.914Z,98441.94
2024-01-15T06:03:59.803Z,98421.94
2024-01-15T06:06:28.237Z,98428.44
2024-01-15T06:08:57.374Z,98431.69
2024-01-15T06:11:25.409Z,98437.09
2024-01-15T06:13:53.154Z,98411.47
2024-01-15T06:16:21.650Z,98417.13
2024-01-15T06:18:49.595Z,98428.22
2024-01-15T06:21:18.203Z,98417.94
2024-01-15T06:23:45.950Z,98426.56
2024-01-15T06:26:15.755Z,98421.72
2024-01-15T06:28:43.476Z,98425.50
2024-01-15T06:31:11.719Z,98430.31
2024-01-15T06:33:39.994Z,98427.06
2024-01-15T06:36:08.897Z,98425.44
2024-01-15T06:38:36.719Z,98440.81
2024-01-15T06:41:04.829Z,98448.66
2024-01-15T06:43:34.495Z,98440.78
2024-01-15T06:46:06.301Z,98451.59
2024-01-15T06:48:35.488Z,98436.78
2024-01-15T06:51:03.766Z,98435.97
2024-01-15T06:53:31.447Z,98432.75
2024-01-15T06:55:59.582Z,98442.22
2024-01-15T06:58:27.264Z,98453.03
2024-01-15T07:00:56.833Z,98451.91
2024-01-15T07:03:24.678Z,98435.16
2024-01-15T07:05:52.767Z,98429.47
2024-01-15T07:08:20.677Z,98433.81
2024-01-15T07:10:48.857Z,98438.16
2024-01-15T07:13:16.896Z,98437.06
2024-01-15T07:15:44.918Z,98439.50
2024-01-15T07:18:14.092Z,98444.38
2024-01-15T07:20:42.236Z,98446.28
2024-01-15T07:23:09.945Z,98456.81
2024-01-15T07:25:37.842Z,98461.94
2024-01-15T07:28:06.624Z,98463.00
2024-01-15T07:30:34.386Z,98465.19
2024-01-15T07:33:02.698Z,98464.63
2024-01-15T07:35:32.058Z,98466.25
2024-01-15T07:38:00.343Z,98477.59
2024-01-15T07:40:28.033Z,98475.16
2024-01-15T07:42:56.144Z,98484.34
2024-01-15T07:45:23.985Z,98492.72
2024-01-15T07:47:52.373Z,98488.66
2024-01-15T07:50:20.156Z,98482.41
2024-01-15T07:52:50.172Z,98497.03
2024-01-15T07:55:17.875Z,98512.94
2024-01-15T07:57:50.835Z,98505.91
2024-01-15T08:00:24.101Z,98512.66
2024-01-15T08:02:52.488Z,98526.19
2024-01-15T08:05:20.252Z,98517.00
2024-01-15T08:07:49.771Z,98510.28
2024-01-15T08:10:17.854Z,98501.59
2024-01-15T08:12:45.914Z,98494.31
2024-01-15T08:15:13.709Z,98513.22
2024-01-15T08:17:41.775Z,98514.03
2024-01-15T08:20:11.596Z,98512.41
2024-01-15T08:22:41.147Z,98513.47
2024-01-15T08:25:11.073Z,98502.06
2024-01-15T08:27:38.894Z,98522.09
2024-01-15T08:30:07.918Z,98515.63
2024-01-15T08:32:37.688Z,98512.88
2024-01-15T08:35:06.273Z,98509.91
2024-01-15T08:37:34.338Z,98505.59
2024-01-15T08:40:02.211Z,98512.34
2024-01-15T08:42:31.575Z,98522.38
2024-01-15T08:44:59.350Z,98518.03
2024-01-15T08:47:27.527Z,98519.97
2024-01-15T08:49:55.328Z,98517.22
2024-01-15T08:52:23.609Z,98531.28
2024-01-15T08:54:51.640Z,98525.91
2024-01-15T08:57:19.871Z,98516.16
2024-01-15T08:59:49.045Z,98535.34
2024-01-15T09:02:16.945Z,98520.50
2024-01-15T09:04:45.009Z,98519.66
2024-01-15T09:07:12.791Z,98529.16
2024-01-15T09:09:40.842Z,98529.09
2024-01-15T09:12:09.375Z,98548.84
2024-01-15T09:14:37.821Z,98543.72
2024-01-15T09:17:07.575Z,98540.19
2024-01-15T09:19:36.012Z,98541.81
2024-01-15T09:22:03.938Z,98531.84
2024-01-15T09:24:32.095Z,98544.81
2024-01-15T09:26:59.787Z,98539.38
2024-01-15T09:29:27.935Z,98555.06
2024-01-15T09:31:55.717Z,98549.09
2024-01-15T09:34:25.195Z,98548.53
2024-01-15T09:36:53.211Z,98551.53
2024-01-15T09:39:21.494Z,98554.25
2024-01-15T09:41:50.661Z,98555.56
2024-01-15T09:44:19.491Z,98557.47
2024-01-15T09:46:51.207Z,98559.34
2024-01-15T09:49:19.848Z,98557.16
2024-01-15T09:51:56.220Z,98567.69
2024-01-15T09:54:31.236Z,98567.94
2024-01-15T09:56:59.015Z,98563.53
2024-01-15T09:59:29.472Z,98553.53
2024-01-15T10:01:57.738Z,98559.75
2024-01-15T10:04:25.960Z,98574.06
2024-01-15T10:06:56.573Z,98550.84
2024-01-15T10:09:24.762Z,98563.31
2024-01-15T10:11:52.640Z,98548.41
2024-01-15T10:14:21.555Z,98540.28
2024-01-15T10:16:49.263Z,98542.50
2024-01-15T10:19:17.479Z,98538.69
2024-01-15T10:21:45.632Z,98548.44
2024-01-15T10:24:14.720Z,98561.19
2024-01-15T10:26:42.513Z,98534.72
2024-01-15T10:29:12.214Z,98531.47
2024-01-15T10:31:40.349Z,98531.16
2024-01-15T10:34:17.286Z,98536.53
2024-01-15T10:36:48.965Z,98532.72
2024-01-15T10:39:18.646Z,98540.34
2024-01-15T10:41:46.691Z,98550.34
2024-01-15T10:44:14.557Z,98538.19
2024-01-15T10:46:42.989Z,98529.78
2024-01-15T10:49:11.899Z,98539.00
2024-01-15T10:51:40.011Z,98539.00
2024-01-15T10:54:12.466Z,98530.84
2024-01-15T10:56:42.379Z,98530.84
2024-01-15T10:59:12.691Z,98539.75
2024-01-15T11:01:40.799Z,98535.16
2024-01-15T11:04:09.471Z,98537.59
2024-01-15T11:06:45.659Z,98519.72
2024-01-15T11:09:16.189Z,98528.66
2024-01-15T11:11:46.724Z,98537.28
2024-01-15T11:14:35.398Z,98545.13
2024-01-15T11:17:04.400Z,98544.31
2024-01-15T11:19:39.034Z,98540.28
2024-01-15T11:22:07.534Z,98537.00
2024-01-15T11:24:40.310Z,98544.03
2024-01-15T11:27:10.692Z,98540.00
2024-01-15T11:29:39.330Z,98543.78
2024-01-15T11:32:08.240Z,98534.59
2024-01-15T11:35:00.302Z,98561.06
2024-01-15T11:37:29.789Z,98555.69
2024-01-15T11:39:58.299Z,98557.84
2024-01-15T11:42:29.350Z,98552.94
2024-01-15T11:44:57.350Z,98547.84
2024-01-15T11:48:09.269Z,98556.50
2024-01-15T11:50:37.032Z,98543.78
2024-01-15T11:53:28.497Z,98556.19
2024-01-15T11:56:00.504Z,98546.22
2024-01-15T11:58:30.083Z,98546.50
2024-01-15T12:00:58.011Z,98549.00
2024-01-15T12:03:26.345Z,98555.31
2024-01-15T12:05:55.791Z,98526.72
2024-01-15T12:08:24.688Z,98532.94
2024-01-15T12:10:53.012Z,98530.53
2024-01-15T12:13:22.474Z,98520.78
2024-01-15T12:15:51.881Z,98499.19
2024-01-15T12:18:21.578Z,98497.56
2024-01-15T12:20:50.626Z,98496.19
2024-01-15T12:23:19.395Z,98496.97
2024-01-15T12:25:47.038Z,98508.06
2024-01-15T12:28:15.471Z,98522.41
2024-01-15T12:30:43.900Z,98527.53
2024-01-15T12:33:13.173Z,98532.13
2024-01-15T12:35:40.978Z,98535.63
2024-01-15T12:38:08.655Z,98539.97
2024-01-15T12:40:37.526Z,98526.97
2024-01-15T12:43:07.829Z,98531.56
2024-01-15T12:45:36.542Z,98528.31
2024-01-15T12:48:04.938Z,98539.41
2024-01-15T12:50:36.131Z,98543.19
2024-01-15T12:53:03.931Z,98541.31
2024-01-15T12:55:31.593Z,98543.50
2024-01-15T12:58:00.026Z,98541.59
2024-01-15T13:00:27.891Z,98532.69
2024-01-15T13:02:57.223Z,98540.00
2024-01-15T13:05:26.080Z,98544.31
2024-01-15T13:07:55.332Z,98538.63
2024-01-15T13:10:25.530Z,98556.19
2024-01-15T13:12:54.714Z,98560.25
2024-01-15T13:15:22.562Z,98568.09
2024-01-15T13:17:50.376Z,98565.13
2024-01-15T13:20:18.683Z,98565.91
2024-01-15T13:22:46.976Z,98565.38
2024-01-15T13:25:17.208Z,98562.69
2024-01-15T13:27:46.069Z,98563.22
2024-01-15T13:30:15.260Z,98577.81
2024-01-15T13:32:43.281Z,98579.97
2024-01-15T13:35:14.893Z,98583.75
2024-01-15T13:37:43.590Z,98583.47
2024-01-15T13:40:18.286Z,98592.13
2024-01-15T13:42:48.306Z,98604.56
2024-01-15T13:45:16.748Z,98590.50
2024-01-15T13:47:46.086Z,98635.38
2024-01-15T13:50:14.427Z,98612.94
2024-01-15T13:52:42.206Z,98622.41
2024-01-15T13:55:11.317Z,98614.81
2024-01-15T13:57:39.253Z,98616.16
2024-01-15T14:00:13.711Z,98611.84
2024-01-15T14:02:41.772Z,98620.25
2024-01-15T14:05:09.878Z,98616.44
2024-01-15T14:07:38.177Z,98622.94
2024-01-15T14:10:06.716Z,98622.13
2024-01-15T14:12:34.511Z,98621.59
2024-01-15T14:15:02.730Z,98638.63
2024-01-15T14:17:31.948Z,98649.41
2024-01-15T14:19:59.886Z,98644.56
2024-01-15T14:22:27.976Z,98653.75
2024-01-15T14:24:55.688Z,98657.53
2024-01-15T14:27:23.732Z,98668.59
2024-01-15T14:29:52.062Z,98669.16
2024-01-15T14:32:19.725Z,98668.06
2024-01-15T14:34:49.410Z,98676.19
2024-01-15T14:37:17.677Z,98665.09
2024-01-15T14:39:45.427Z,98684.28
2024-01-15T14:42:13.399Z,98694.81
2024-01-15T14:44:42.557Z,98688.63
2024-01-15T14:47:10.236Z,98689.69
2024-01-15T14:49:38.025Z,98695.09
2024-01-15T14:52:08.320Z,98714.84
2024-01-15T14:54:36.129Z,98715.09
2024-01-15T14:57:03.864Z,98715.09
2024-01-15T14:59:31.912Z,98721.84
2024-01-15T15:01:59.768Z,98725.38
2024-01-15T15:04:27.706Z,98737.28
2024-01-15T15:06:56.129Z,98732.38
2024-01-15T15:09:25.385Z,98737.25
2024-01-15T15:11:53.603Z,98740.25
2024-01-15T15:14:21.767Z,98750.22
2024-01-15T15:16:49.501Z,98752.66
2024-01-15T15:19:18.788Z,98760.75
2024-01-15T15:21:47.557Z,98759.41
2024-01-15T15:24:15.308Z,98768.06
2024-01-15T15:26:44.844Z,98763.44
2024-01-15T15:29:13.080Z,98755.09
2024-01-15T15:31:40.874Z,98775.88
2024-01-15T15:34:08.850Z,98776.47
2024-01-15T15:36:37.676Z,98779.41
2024-01-15T15:39:05.487Z,98783.97
2024-01-15T15:41:34.365Z,98782.31
2024-01-15T15:44:03.420Z,98786.38
2024-01-15T15:46:31.108Z,98785.81
2024-01-15T15:48:59.374Z,98773.66
2024-01-15T15:51:27.192Z,98786.91
2024-01-15T15:53:55.274Z,98795.25
2024-01-15T15:56:22.969Z,98802.56
2024-01-15T15:58:50.919Z,98803.13
2024-01-15T16:01:20.139Z,98805.22
2024-01-15T16:03:48.494Z,98807.44
2024-01-15T16:06:16.464Z,98809.06
2024-01-15T16:08:44.859Z,98814.16
2024-01-15T16:11:13.185Z,98803.88
2024-01-15T16:13:41.556Z,98799.56
2024-01-15T16:23:09.935Z,98811.22
2024-01-15T16:23:23.075Z,98820.09
2024-01-15T16:23:38.134Z,98826.34
2024-01-15T16:24:46.155Z,98821.94
2024-01-15T16:27:19.619Z,98823.00
2024-01-15T16:29:47.325Z,98816.25
2024-01-15T16:32:15.104Z,98813.84
2024-01-15T16:34:44.609Z,98822.78
2024-01-15T16:37:12.343Z,98822.50
2024-01-15T16:39:40.500Z,98831.44
2024-01-15T16:42:10.380Z,98830.34
2024-01-15T16:44:38.619Z,98840.63
2024-01-15T16:47:08.219Z,98848.41
2024-01-15T16:49:36.548Z,98848.63
2024-01-15T16:52:08.231Z,98845.69
2024-01-15T16:54:36.778Z,98850.59
2024-01-15T16:57:05.227Z,98861.66
2024-01-15T16:59:33.017Z,98854.09
2024-01-15T17:02:01.278Z,98861.38
2024-01-15T17:04:29.143Z,98856.97
2024-01-15T17:06:57.708Z,98864.56
2024-01-15T17:09:26.809Z,98876.94
2024-01-15T17:11:54.734Z,98870.97
2024-01-15T17:14:22.433Z,98873.66
2024-01-15T17:16:50.104Z,98877.97
2024-01-15T17:19:18.300Z,98882.00
2024-01-15T17:21:46.004Z,98885.03
2024-01-15T17:24:14.575Z,98892.56
2024-01-15T17:26:43.696Z,98889.31
2024-01-15T17:29:11.921Z,98894.50
2024-01-15T17:31:39.736Z,98904.44
2024-01-15T17:34:07.942Z,98911.50
2024-01-15T17:36:35.623Z,98911.50
2024-01-15T17:39:03.704Z,98910.41
2024-01-15T17:41:34.487Z,98904.56
2024-01-15T17:44:03.803Z,98907.25
2024-01-15T17:46:31.944Z,98906.75
2024-01-15T17:49:04.161Z,98912.66
2024-01-15T17:51:33.833Z,98918.06
2024-01-15T17:54:02.194Z,98921.56
2024-01-15T17:56:30.578Z,98918.66
2024-01-15T17:58:58.931Z,98919.19
2024-01-15T18:01:28.424Z,98918.28
2024-01-15T18:03:58.756Z,98925.88
2024-01-15T18:06:26.477Z,98928.78
2024-01-15T18:08:54.605Z,98927.97
2024-01-15T18:11:22.446Z,98933.38
2024-01-15T18:13:50.645Z,98928.53
2024-01-15T18:16:23.377Z,98946.03
2024-01-15T18:18:53.816Z,98950.63
2024-01-15T18:21:22.498Z,98950.19
2024-01-15T18:23:50.781Z,98964.22
2024-01-15T18:26:19.075Z,98977.16
2024-01-15T18:28:46.774Z,98989.25
2024-01-15T18:31:15.030Z,98999.69
2024-01-15T18:33:42.858Z,99006.16
2024-01-15T18:36:12.595Z,99003.47
2024-01-15T18:38:40.351Z,99012.13
2024-01-15T18:41:08.469Z,99022.34
2024-01-15T18:43:36.383Z,99028.59
2024-01-15T18:46:06.625Z,99041.97
2024-01-15T18:48:34.512Z,99044.97
2024-01-15T18:51:02.334Z,99048.03
2024-01-15T18:53:31.670Z,99062.91
2024-01-15T18:55:59.493Z,99063.09
2024-01-15T18:58:27.562Z,99071.25
2024-01-15T19:00:55.547Z,99071.25
2024-01-15T19:03:23.355Z,99079.38
2024-01-15T19:05:51.325Z,99091.06
2024-01-15T19:08:19.100Z,99093.72
2024-01-15T19:10:49.753Z,99093.66
2024-01-15T19:13:17.519Z,99085.75
2024-01-15T19:15:45.410Z,99093.53
2024-01-15T19:18:14.077Z,99102.19
2024-01-15T19:20:42.571Z,99098.75
2024-01-15T19:23:12.247Z,99108.47
2024-01-15T19:25:39.966Z,99113.72
2024-01-15T19:28:09.255Z,99120.31
2024-01-15T19:30:36.966Z,99128.22
2024-01-15T19:33:05.410Z,99130.88
2024-01-15T19:35:33.283Z,99130.09
2024-01-15T19:38:03.258Z,99144.59
2024-01-15T19:40:31.411Z,99145.00
2024-01-15T19:42:59.623Z,99147.38
2024-01-15T19:45:28.911Z,99153.84
2024-01-15T19:47:56.676Z,99154.59
2024-01-15T19:50:25.149Z,99154.28
2024-01-15T19:52:52.901Z,99155.34
2024-01-15T19:55:20.807Z,99158.56
2024-01-15T19:57:48.753Z,99171.72
2024-01-15T20:00:17.290Z,99172.78
2024-01-15T20:02:47.201Z,99174.53
2024-01-15T20:05:15.430Z,99182.69
2024-01-15T20:07:43.235Z,99187.28
2024-01-15T20:10:11.966Z,99182.13
2024-01-15T20:12:40.991Z,99196.84
2024-01-15T20:15:09.377Z,99196.28
2024-01-15T20:17:37.550Z,99196.53
2024-01-15T20:20:11.608Z,99211.16
2024-01-15T20:22:39.961Z,99213.59
2024-01-15T20:25:09.060Z,99219.25
2024-01-15T20:27:37.393Z,99219.47
2024-01-15T20:30:07.553Z,99226.50
2024-01-15T20:32:35.506Z,99228.56
2024-01-15T20:35:04.869Z,99227.06
2024-01-15T20:37:33.983Z,99232.97
2024-01-15T20:40:02.187Z,99238.88
2024-01-15T20:42:30.846Z,99241.41
2024-01-15T20:44:59.128Z,99246.78
2024-01-15T20:47:26.944Z,99254.16
2024-01-15T20:49:55.073Z,99254.31
2024-01-15T20:52:25.415Z,99251.53
2024-01-15T20:54:55.123Z,99258.16
2024-01-15T20:57:23.051Z,99265.75
2024-01-15T20:59:51.878Z,99265.13
2024-01-15T21:02:20.364Z,99261.09
2024-01-15T21:04:48.128Z,99267.47
2024-01-15T21:07:16.236Z,99276.97
2024-01-15T21:09:44.365Z,99267.72
2024-01-15T21:12:14.131Z,99266.91
2024-01-15T21:14:41.862Z,99284.16
2024-01-15T21:17:09.662Z,99280.53
2024-01-15T21:19:37.820Z,99282.59
2024-01-15T21:22:05.724Z,99295.19
2024-01-15T21:24:34.142Z,99303.94
2024-01-15T21:27:01.842Z,99306.63
2024-01-15T21:29:31.077Z,99306.38
2024-01-15T21:31:59.244Z,99290.19
2024-01-15T21:34:27.036Z,99297.72
2024-01-15T21:36:54.766Z,99298.28
2024-01-15T21:39:22.795Z,99314.22
2024-01-15T21:41:50.989Z,99321.19
2024-01-15T21:44:18.817Z,99325.50
2024-01-15T21:46:48.880Z,99334.66
2024-01-15T21:49:16.751Z,99330.72
2024-01-15T21:51:44.548Z,99337.59
2024-01-15T21:54:12.614Z,99349.78
2024-01-15T21:56:40.444Z,99350.00
2024-01-15T21:59:08.538Z,99350.34
2024-01-15T22:01:36.707Z,99356.22
2024-01-15T22:04:06.696Z,99359.38
2024-01-15T22:06:37.341Z,99360.72
2024-01-15T22:09:05.245Z,99365.75
2024-01-15T22:11:32.986Z,99359.78
2024-01-15T22:14:01.102Z,99365.75
2024-01-15T22:16:28.819Z,99361.09
2024-01-15T22:19:02.448Z,99362.72
2024-01-15T22:21:32.300Z,99373.50
2024-01-15T22:24:00.049Z,99377.50
2024-01-15T22:26:27.799Z,99367.44
2024-01-15T22:28:56.017Z,99374.47
2024-01-15T22:31:23.947Z,99360.75
2024-01-15T22:33:51.905Z,99368.28
2024-01-15T22:36:20.093Z,99361.34
2024-01-15T22:38:49.952Z,99358.66
2024-01-15T22:41:17.813Z,99357.00
2024-01-15T22:43:47.122Z,99359.22
2024-01-15T22:46:15.154Z,99365.19
2024-01-15T22:48:43.159Z,99363.63
2024-01-15T22:51:11.674Z,99361.69
2024-01-15T22:53:39.431Z,99370.16
2024-01-15T22:56:08.636Z,99371.19
2024-01-15T22:58:36.738Z,99372.25
2024-01-15T23:01:04.930Z,99378.94
2024-01-15T23:03:32.761Z,99382.97
2024-01-15T23:06:01.059Z,99385.88
2024-01-15T23:08:29.458Z,99382.38
2024-01-15T23:10:57.147Z,99386.47
2024-01-15T23:13:26.447Z,99380.25
2024-01-15T23:15:54.195Z,99381.56
2024-01-15T23:18:22.086Z,99388.56
2024-01-15T23:20:50.291Z,99387.50
2024-01-15T23:23:17.987Z,99392.09
2024-01-15T23:25:45.900Z,99397.97
2024-01-15T23:28:14.032Z,99389.53
2024-01-15T23:30:43.122Z,99391.66
2024-01-15T23:33:10.965Z,99394.34
2024-01-15T23:35:39.090Z,99391.44
2024-01-15T23:38:07.306Z,99386.06
2024-01-15T23:40:35.096Z,99373.59
2024-01-15T23:43:03.644Z,99379.25
2024-01-15T23:45:31.317Z,99371.41
2024-01-15T23:48:00.973Z,99383.00
2024-01-15T23:50:29.066Z,99375.50
2024-01-15T23:52:56.828Z,99384.38
2024-01-15T23:55:24.562Z,99389.31
2024-01-15T23:57:52.907Z,99391.75
